Time;durP1;ratioP1;P1;durP2;ratioP2;P2;SDS_P1;SDS_P2;PMS_P1;PMS_P2;Temp;Humidity;BMP_temperature;BMP_pressure;BME280_temperature;BME280_humidity;BME280_pressure;Samples;Min_cycle;Max_cycle;Signal;HPM_P1;HPM_P2
2022/03/30 00:01:11;;;;;;;9.47;8.67;;;19.50;48.90;20.50;99829.00;;;;5009818;28;20200;-51
2022/03/30 00:03:37;;;;;;;9.90;8.90;;;19.50;48.90;20.50;99834.00;;;;5009513;28;20202;-50
2022/03/30 00:06:04;;;;;;;9.97;8.97;;;19.50;48.90;20.50;99837.00;;;;5009129;28;20195;-49
2022/03/30 00:08:30;;;;;;;9.37;8.47;;;19.50;49.00;20.50;99827.00;;;;5008329;28;20188;-49
2022/03/30 00:10:56;;;;;;;9.27;8.47;;;19.50;48.90;20.50;99833.00;;;;5009165;28;20664;-49
2022/03/30 00:13:22;;;;;;;9.57;8.77;;;19.40;48.90;20.40;99824.00;;;;5008275;28;20172;-49
2022/03/30 00:15:48;;;;;;;9.30;8.50;;;19.40;48.80;20.40;99821.00;;;;5009157;28;20764;-49
2022/03/30 00:18:13;;;;;;;9.07;8.27;;;19.40;48.80;20.40;99826.00;;;;5007722;28;20210;-49
2022/03/30 00:20:39;;;;;;;9.87;8.93;;;19.40;48.80;20.40;99809.00;;;;5008930;28;20679;-48
2022/03/30 00:23:05;;;;;;;9.13;8.33;;;19.40;48.90;20.40;99833.00;;;;4991684;28;20164;-50
2022/03/30 00:25:31;;;;;;;8.97;8.17;;;19.40;48.80;20.40;99831.00;;;;5009141;28;20176;-50
2022/03/30 00:27:56;;;;;;;9.30;8.40;;;19.40;48.80;20.30;99825.00;;;;5008822;28;20217;-49
2022/03/30 00:30:22;;;;;;;9.43;8.53;;;19.40;48.90;20.30;99830.00;;;;5008740;28;20167;-49
2022/03/30 00:32:48;;;;;;;9.43;8.60;;;19.30;48.80;20.30;99824.00;;;;5008773;28;20180;-51
2022/03/30 00:35:14;;;;;;;8.97;8.10;;;19.30;48.70;20.30;99821.00;;;;5009316;28;20257;-50
2022/03/30 00:37:40;;;;;;;9.03;8.23;;;19.30;48.70;20.30;99811.00;;;;5009008;28;20179;-50
2022/03/30 00:40:08;;;;;;;9.73;8.73;;;19.30;48.70;20.30;99818.00;;;;5009214;28;20171;-51
2022/03/30 00:42:34;;;;;;;9.07;8.27;;;19.20;48.70;20.30;99807.00;;;;5009121;28;20182;-51
2022/03/30 00:45:21;;;;;;;9.53;8.70;;;19.20;48.60;20.30;99809.00;;;;5009031;28;20171;-51
2022/03/30 00:47:47;;;;;;;9.07;8.17;;;19.20;48.70;20.00;99791.00;;;;5008932;28;20156;-50
2022/03/30 00:50:16;;;;;;;9.43;8.60;;;19.20;48.60;20.20;99810.00;;;;5007617;28;20548;-50
2022/03/30 00:52:42;;;;;;;8.57;7.77;;;19.20;48.60;20.20;99809.00;;;;5010829;28;20522;-49
2022/03/30 00:55:08;;;;;;;8.97;8.17;;;19.20;48.60;20.20;99804.00;;;;5012350;28;20168;-49
2022/03/30 00:57:34;;;;;;;9.63;8.70;;;19.20;48.50;20.20;99801.00;;;;5011470;28;20172;-50
2022/03/30 01:00:00;;;;;;;9.10;8.20;;;19.20;48.50;20.20;99774.00;;;;5011451;28;20206;-49
2022/03/30 01:02:26;;;;;;;9.63;8.63;;;19.20;48.50;20.20;99800.00;;;;5011464;28;20173;-50
2022/03/30 01:04:52;;;;;;;9.80;8.90;;;19.10;48.50;20.10;99801.00;;;;5012761;28;20164;-51
2022/03/30 01:07:18;;;;;;;9.63;8.73;;;19.10;48.50;20.10;99796.00;;;;5011329;28;20205;-51
2022/03/30 01:09:44;;;;;;;8.80;8.00;;;19.10;48.50;20.10;99786.00;;;;5012462;28;20206;-50
2022/03/30 01:12:11;;;;;;;8.60;7.80;;;19.20;48.50;19.90;99747.00;;;;5012779;28;20182;-51
2022/03/30 01:14:36;;;;;;;9.10;8.30;;;19.10;48.40;20.10;99805.00;;;;5012603;28;20196;-49
2022/03/30 01:17:03;;;;;;;8.93;8.13;;;19.10;48.40;20.10;99789.00;;;;5011108;28;20713;-50
2022/03/30 01:19:30;;;;;;;9.23;8.33;;;19.10;48.40;20.10;99799.00;;;;5012190;28;20576;-49
2022/03/30 01:21:55;;;;;;;8.90;8.10;;;19.10;48.40;20.10;99793.00;;;;5012601;28;20677;-49
2022/03/30 01:24:21;;;;;;;9.13;8.33;;;19.10;48.40;20.10;99782.00;;;;5012279;28;20252;-48
2022/03/30 01:26:47;;;;;;;8.93;8.13;;;19.00;48.30;20.00;99777.00;;;;4994681;28;20672;-51
2022/03/30 01:34:42;;;;;;;8.60;7.80;;;19.00;48.40;20.00;99771.00;;;;5012168;28;20167;-49
2022/03/30 01:37:08;;;;;;;8.83;8.03;;;19.00;48.50;20.00;99775.00;;;;5011960;28;20178;-50
2022/03/30 01:39:34;;;;;;;10.10;8.00;;;19.00;48.60;20.00;99768.00;;;;5012006;28;20191;-50
2022/03/30 01:42:00;;;;;;;8.27;7.57;;;19.00;48.60;20.00;99764.00;;;;5011980;28;20207;-51
2022/03/30 01:44:26;;;;;;;8.80;8.00;;;19.00;48.60;19.90;99759.00;;;;5011166;28;20167;-51
2022/03/30 01:46:52;;;;;;;8.80;7.93;;;19.00;48.60;19.90;99755.00;;;;5010648;28;20168;-51
2022/03/30 01:49:21;;;;;;;8.43;7.63;;;18.90;48.50;19.90;99753.00;;;;5010361;28;20197;-51
2022/03/30 01:51:54;;;;;;;8.40;7.60;;;18.90;48.50;19.90;99749.00;;;;5011952;28;20165;-51
2022/03/30 01:54:22;;;;;;;7.90;7.10;;;19.00;48.70;19.90;99750.00;;;;5010958;28;20179;-52
2022/03/30 01:56:48;;;;;;;8.33;7.60;;;18.90;48.60;19.70;99745.00;;;;5011226;28;20206;-50
2022/03/30 01:59:14;;;;;;;8.67;7.87;;;18.90;48.60;19.90;99744.00;;;;5011595;28;20199;-50
2022/03/30 02:01:41;;;;;;;8.87;7.97;;;18.90;48.60;19.90;99736.00;;;;5010292;28;20204;-53
2022/03/30 02:04:06;;;;;;;8.50;7.70;;;18.90;48.60;19.80;99735.00;;;;5011693;28;20229;-51
2022/03/30 02:06:33;;;;;;;9.07;8.17;;;18.90;48.60;19.80;99738.00;;;;5010697;28;20176;-52
2022/03/30 02:08:59;;;;;;;8.67;7.93;;;18.80;48.60;19.80;99732.00;;;;5011486;28;20234;-52
2022/03/30 02:11:26;;;;;;;9.03;8.13;;;18.80;48.50;19.80;99728.00;;;;5011286;28;20233;-52
2022/03/30 02:13:52;;;;;;;8.70;7.97;;;18.80;48.50;19.80;99732.00;;;;5011727;28;20187;-51
2022/03/30 02:16:18;;;;;;;8.33;7.60;;;18.80;48.50;19.80;99711.00;;;;5010077;28;20173;-51
2022/03/30 02:18:44;;;;;;;9.07;7.97;;;18.80;48.50;19.80;99716.00;;;;5011508;28;20536;-51
2022/03/30 02:21:10;;;;;;;9.00;8.20;;;18.80;48.50;19.80;99718.00;;;;5010876;28;20268;-51
2022/03/30 02:23:36;;;;;;;8.93;8.17;;;18.80;48.50;19.70;99716.00;;;;5011236;28;20202;-50
2022/03/30 02:26:02;;;;;;;8.63;7.83;;;18.80;48.50;19.80;99704.00;;;;5010668;28;20210;-51
2022/03/30 02:28:28;;;;;;;8.10;7.40;;;18.80;48.60;19.70;99712.00;;;;5010024;28;20202;-49
2022/03/30 02:30:53;;;;;;;8.43;7.63;;;18.80;48.60;19.70;99711.00;;;;5010935;28;20175;-50
2022/03/30 02:33:19;;;;;;;8.53;7.80;;;18.70;48.50;19.70;99706.00;;;;5011281;28;20170;-52
2022/03/30 02:35:45;;;;;;;8.73;7.73;;;18.80;48.60;19.70;99707.00;;;;5011277;28;20195;-52
2022/03/30 02:38:11;;;;;;;9.13;8.30;;;18.70;48.50;19.70;99699.00;;;;5011052;28;20540;-51
2022/03/30 02:40:36;;;;;;;9.03;8.23;;;18.70;48.50;19.70;99692.00;;;;5012568;28;20210;-52
2022/03/30 02:43:02;;;;;;;8.40;7.60;;;18.70;48.50;19.70;99692.00;;;;5012602;28;20189;-51
2022/03/30 02:45:28;;;;;;;8.83;7.93;;;18.70;48.60;19.60;99689.00;;;;5010981;28;20183;-51
2022/03/30 02:50:38;;;;;;;8.50;7.77;;;18.70;48.60;19.60;99683.00;;;;5011070;28;20884;-50
2022/03/30 02:53:04;;;;;;;8.17;7.43;;;18.70;48.60;19.60;99679.00;;;;5010715;28;20171;-50
2022/03/30 02:55:29;;;;;;;8.23;7.43;;;18.70;48.60;19.60;99668.00;;;;5010666;28;20184;-51
2022/03/30 02:57:55;;;;;;;8.63;7.83;;;18.60;48.50;19.60;99667.00;;;;5010509;28;20656;-51
2022/03/30 03:00:21;;;;;;;8.13;7.43;;;18.60;48.50;19.60;99665.00;;;;5010292;28;20195;-51
2022/03/30 03:02:47;;;;;;;8.67;7.87;;;18.60;48.50;19.60;99672.00;;;;5010497;28;20336;-51
2022/03/30 03:05:13;;;;;;;9.00;8.10;;;18.60;48.50;19.50;99663.00;;;;5010366;28;20660;-51
2022/03/30 03:07:41;;;;;;;9.00;8.03;;;18.60;48.50;19.50;99663.00;;;;5011439;28;20182;-51
2022/03/30 03:10:07;;;;;;;8.60;7.90;;;18.50;48.40;19.50;99664.00;;;;5012605;28;20187;-51
2022/03/30 03:12:33;;;;;;;9.70;8.70;;;18.50;48.50;19.50;99653.00;;;;5011439;28;20170;-51
2022/03/30 03:14:58;;;;;;;9.13;8.27;;;18.50;48.50;19.50;99655.00;;;;5010681;28;20171;-51
2022/03/30 03:17:24;;;;;;;9.47;8.57;;;18.50;48.50;19.50;99662.00;;;;5011994;28;20175;-49
2022/03/30 03:19:50;;;;;;;8.73;7.93;;;18.50;48.50;19.50;99659.00;;;;5010658;28;20805;-51
2022/03/30 03:22:15;;;;;;;9.00;8.20;;;18.50;48.50;19.40;99658.00;;;;5010522;28;20194;-51
2022/03/30 03:24:41;;;;;;;9.20;8.30;;;18.50;48.40;19.40;99665.00;;;;5010172;28;20202;-51
2022/03/30 03:27:07;;;;;;;8.80;8.00;;;18.50;48.50;19.40;99654.00;;;;5009797;28;20169;-52
2022/03/30 03:29:33;;;;;;;11.33;9.30;;;18.50;48.60;19.40;99656.00;;;;5009077;28;20188;-51
2022/03/30 03:31:59;;;;;;;10.23;8.43;;;18.50;48.50;19.40;99656.00;;;;5010461;28;20175;-50
2022/03/30 03:34:24;;;;;;;8.43;7.63;;;18.50;48.50;19.40;99653.00;;;;5010503;28;20181;-51
2022/03/30 03:36:50;;;;;;;9.00;7.57;;;18.50;48.60;19.40;99648.00;;;;5009943;28;20178;-51
2022/03/30 03:39:17;;;;;;;8.17;7.43;;;18.40;48.50;19.40;99650.00;;;;5010210;28;20265;-51
2022/03/30 03:41:43;;;;;;;8.43;7.63;;;18.50;48.60;19.40;99656.00;;;;5010083;28;20207;-51
2022/03/30 03:44:09;;;;;;;10.80;8.03;;;18.40;48.50;19.40;99657.00;;;;5009860;28;20200;-51
2022/03/30 03:46:35;;;;;;;10.47;7.93;;;18.40;48.50;19.40;99646.00;;;;5010280;28;20202;-50
2022/03/30 03:49:01;;;;;;;9.10;8.20;;;18.40;48.40;19.40;99652.00;;;;5010185;28;20278;-50
2022/03/30 03:51:26;;;;;;;9.07;7.67;;;18.40;48.40;19.30;99653.00;;;;5008279;28;20181;-50
2022/03/30 03:53:52;;;;;;;10.37;8.03;;;18.40;48.50;19.30;99638.00;;;;5009443;28;20211;-50
2022/03/30 03:56:18;;;;;;;10.03;8.30;;;18.30;48.30;19.30;99646.00;;;;5008792;28;20342;-50
2022/03/30 03:58:43;;;;;;;9.57;8.40;;;18.30;48.30;19.30;99651.00;;;;5008202;28;20436;-51
2022/03/30 04:01:09;;;;;;;10.10;8.33;;;18.30;48.30;19.30;99644.00;;;;5009386;28;20203;-51
2022/03/30 04:03:35;;;;;;;9.27;7.67;;;18.30;48.30;19.30;99648.00;;;;5009406;28;20176;-50
2022/03/30 04:06:00;;;;;;;9.77;8.40;;;18.30;48.20;19.20;99657.00;;;;5003917;28;20984;-50
2022/03/30 04:08:26;;;;;;;9.07;8.00;;;18.30;48.20;19.20;99658.00;;;;4989251;28;20229;-51
2022/03/30 04:10:52;;;;;;;9.37;8.40;;;18.30;48.20;19.20;99651.00;;;;4989825;28;20206;-51
2022/03/30 04:13:18;;;;;;;9.33;8.07;;;18.30;48.20;19.00;99652.00;;;;4989797;28;20854;-50
2022/03/30 04:15:43;;;;;;;8.40;7.60;;;18.30;48.20;19.20;99656.00;;;;4989119;28;20186;-50
2022/03/30 04:18:09;;;;;;;8.70;7.80;;;18.30;48.40;19.20;99646.00;;;;4989176;28;20201;-51
2022/03/30 04:20:36;;;;;;;8.90;8.00;;;18.30;48.30;19.20;99652.00;;;;4990281;28;20208;-51
2022/03/30 04:23:01;;;;;;;8.43;7.53;;;18.30;48.40;19.20;99648.00;;;;4991686;28;20227;-50
2022/03/30 04:25:27;;;;;;;8.50;7.70;;;18.30;48.40;19.20;99654.00;;;;4989872;28;20176;-51
2022/03/30 04:27:53;;;;;;;8.23;7.43;;;18.30;48.40;19.20;99644.00;;;;4988746;28;20181;-50
2022/03/30 04:30:20;;;;;;;9.13;7.90;;;18.30;48.30;19.20;99647.00;;;;5004586;28;20723;-51
2022/03/30 04:32:46;;;;;;;9.50;8.27;;;18.20;48.20;19.10;99648.00;;;;4989435;28;20226;-51
2022/03/30 04:35:18;;;;;;;8.80;7.90;;;18.20;48.30;19.10;99644.00;;;;4989336;28;20172;-51
2022/03/30 04:37:43;;;;;;;8.60;7.70;;;18.20;48.30;19.10;99641.00;;;;4988782;28;20256;-50
2022/03/30 04:40:10;;;;;;;12.33;8.20;;;18.20;48.30;19.10;99640.00;;;;4989097;28;20281;-51
2022/03/30 04:42:36;;;;;;;8.63;7.73;;;18.20;48.30;19.10;99638.00;;;;4989002;28;20187;-50
2022/03/30 04:45:01;;;;;;;10.67;8.67;;;18.20;48.30;19.10;99630.00;;;;4989324;28;20560;-51
2022/03/30 04:47:27;;;;;;;9.27;7.80;;;18.10;48.30;19.10;99631.00;;;;4988647;28;20876;-50
2022/03/30 04:49:53;;;;;;;8.90;8.00;;;18.10;48.30;19.00;99629.00;;;;4988679;28;20740;-50
2022/03/30 04:52:19;;;;;;;12.97;8.07;;;18.10;48.30;19.00;99626.00;;;;4989169;28;20178;-50
2022/03/30 04:54:44;;;;;;;9.27;8.37;;;18.10;48.70;19.00;99625.00;;;;4989117;28;20191;-50
2022/03/30 04:57:10;;;;;;;8.50;7.70;;;18.10;48.50;19.00;99631.00;;;;4988304;28;20230;-50
2022/03/30 04:59:36;;;;;;;8.60;7.80;;;18.10;48.60;19.00;99628.00;;;;4988937;28;20604;-50
2022/03/30 05:02:01;;;;;;;7.97;7.20;;;18.10;48.60;18.80;99631.00;;;;4988875;28;20204;-50
2022/03/30 05:04:29;;;;;;;10.07;7.60;;;18.10;48.60;19.00;99637.00;;;;4989151;28;20271;-51
2022/03/30 05:06:55;;;;;;;8.80;8.00;;;18.10;48.60;19.00;99636.00;;;;4988809;28;20252;-50
2022/03/30 05:09:21;;;;;;;9.73;7.43;;;18.10;48.50;19.00;99633.00;;;;4988980;28;20215;-49
2022/03/30 05:11:46;;;;;;;8.70;7.90;;;18.00;48.50;18.90;99614.00;;;;4988878;28;20762;-50
2022/03/30 05:14:12;;;;;;;8.80;7.90;;;18.00;48.50;18.90;99631.00;;;;4988060;28;20235;-49
2022/03/30 05:16:38;;;;;;;9.67;8.07;;;18.00;48.50;18.90;99641.00;;;;4988387;28;20167;-50
2022/03/30 05:19:04;;;;;;;9.20;8.07;;;18.00;48.50;18.90;99628.00;;;;4988758;28;20770;-50
2022/03/30 05:21:30;;;;;;;8.70;7.80;;;18.00;48.50;18.90;99633.00;;;;4988893;28;20212;-50
2022/03/30 05:23:55;;;;;;;9.90;7.53;;;18.00;48.50;18.90;99632.00;;;;4988792;28;20167;-49
2022/03/30 05:26:21;;;;;;;8.43;7.60;;;17.90;48.50;18.90;99630.00;;;;4987053;28;20175;-50
2022/03/30 05:28:47;;;;;;;9.30;7.57;;;18.00;48.60;18.90;99621.00;;;;4988312;28;20199;-50
2022/03/30 05:31:12;;;;;;;8.00;7.27;;;17.90;48.50;18.90;99622.00;;;;4988035;28;20539;-51
2022/03/30 05:33:38;;;;;;;12.20;7.57;;;18.00;48.60;18.90;99633.00;;;;4840495;28;20191;-49
2022/03/30 05:36:04;;;;;;;11.23;6.90;;;18.00;48.60;18.90;99630.00;;;;4990554;28;20268;-50
2022/03/30 05:38:30;;;;;;;9.90;7.20;;;18.00;48.60;18.90;99629.00;;;;4990194;28;20217;-51
2022/03/30 05:40:56;;;;;;;10.70;7.57;;;18.00;48.60;18.90;99633.00;;;;4972551;28;20211;-49
2022/03/30 05:43:22;;;;;;;9.63;6.80;;;18.00;48.90;18.90;99636.00;;;;4972911;28;20179;-50
2022/03/30 05:45:48;;;;;;;9.63;7.33;;;17.90;48.90;18.90;99634.00;;;;4972985;28;20647;-50
2022/03/30 05:48:15;;;;;;;19.33;9.10;;;17.90;48.90;18.90;99645.00;;;;4971196;28;20189;-49
2022/03/30 05:50:41;;;;;;;23.77;10.17;;;17.90;48.80;18.90;99636.00;;;;4974194;28;20600;-50
2022/03/30 05:53:06;;;;;;;22.80;11.47;;;17.90;48.90;18.90;99640.00;;;;5011767;28;20217;-50
2022/03/30 05:55:33;;;;;;;24.00;10.90;;;17.90;49.00;18.90;99636.00;;;;5011264;28;20181;-50
2022/03/30 05:57:59;;;;;;;22.27;11.07;;;17.90;48.90;18.90;99631.00;;;;4992016;28;20182;-50
2022/03/30 06:00:24;;;;;;;23.20;10.80;;;17.90;49.00;18.90;99643.00;;;;4992931;28;20752;-53
2022/03/30 06:02:50;;;;;;;19.57;10.43;;;17.90;49.10;18.90;99646.00;;;;4992325;28;20529;-49
2022/03/30 06:05:16;;;;;;;24.60;10.83;;;17.90;49.10;18.90;99640.00;;;;4991009;28;20226;-50
2022/03/30 06:07:41;;;;;;;18.17;9.40;;;17.90;49.10;18.80;99642.00;;;;4990674;28;20233;-50
2022/03/30 06:10:08;;;;;;;24.17;10.70;;;17.80;49.00;18.80;99636.00;;;;4991439;28;20186;-50
2022/03/30 06:12:33;;;;;;;17.00;9.53;;;17.80;49.00;18.80;99644.00;;;;4991799;28;20173;-51
2022/03/30 06:14:59;;;;;;;18.23;10.23;;;17.80;48.90;18.80;99647.00;;;;4991676;28;20201;-51
2022/03/30 06:17:25;;;;;;;18.70;10.10;;;17.80;48.90;18.80;99646.00;;;;4991622;28;20178;-50
2022/03/30 06:19:52;;;;;;;16.50;9.33;;;17.80;49.00;18.80;99644.00;;;;4991900;28;20228;-49
2022/03/30 06:22:18;;;;;;;19.00;9.73;;;17.80;49.00;18.80;99646.00;;;;4990918;28;20234;-50
2022/03/30 06:24:44;;;;;;;16.60;9.37;;;17.80;49.00;18.80;99638.00;;;;4993941;28;20165;-50
2022/03/30 06:27:10;;;;;;;18.23;9.57;;;17.70;48.90;18.80;99638.00;;;;4993910;28;20171;-51
2022/03/30 06:29:36;;;;;;;15.73;8.73;;;17.80;49.00;18.70;99641.00;;;;4990496;28;20196;-49
2022/03/30 06:32:03;;;;;;;14.43;8.93;;;17.70;48.90;18.70;99644.00;;;;4992001;28;20263;-51
2022/03/30 06:34:28;;;;;;;16.20;8.80;;;17.80;48.90;18.70;99640.00;;;;4991789;28;20178;-50
2022/03/30 06:36:54;;;;;;;15.47;8.93;;;17.80;48.90;18.70;99652.00;;;;4991154;28;20528;-50
2022/03/30 06:39:20;;;;;;;14.87;8.50;;;17.70;48.90;18.70;99639.00;;;;4991371;28;20203;-50
2022/03/30 06:41:46;;;;;;;16.30;8.63;;;17.70;48.90;18.70;99651.00;;;;4991736;28;20235;-50
2022/03/30 06:44:11;;;;;;;16.40;8.63;;;17.70;48.90;18.70;99640.00;;;;4991769;28;20226;-50
2022/03/30 06:46:40;;;;;;;11.93;8.20;;;17.70;48.90;18.70;99640.00;;;;4989549;28;20191;-49
2022/03/30 06:49:07;;;;;;;14.83;8.10;;;17.70;48.90;18.70;99642.00;;;;4990227;28;20200;-49
2022/03/30 06:51:33;;;;;;;14.13;8.47;;;17.70;48.90;18.70;99631.00;;;;4990368;28;20181;-51
2022/03/30 06:53:58;;;;;;;13.10;8.03;;;17.70;48.90;18.60;99651.00;;;;5005965;28;20259;-49
2022/03/30 06:56:25;;;;;;;14.13;8.40;;;17.70;48.90;18.60;99657.00;;;;4990785;28;20177;-51
2022/03/30 06:58:51;;;;;;;12.13;7.87;;;17.70;48.90;18.60;99651.00;;;;4991143;28;20185;-51
2022/03/30 07:01:17;;;;;;;12.37;7.77;;;17.70;48.90;18.60;99647.00;;;;4990690;28;20210;-50
2022/03/30 07:03:43;;;;;;;12.60;7.53;;;17.60;48.80;18.60;99648.00;;;;5006227;28;20169;-50
2022/03/30 07:06:08;;;;;;;11.73;7.47;;;17.60;48.80;18.60;99645.00;;;;4990579;28;20176;-50
2022/03/30 07:11:18;;;;;;;13.67;7.87;;;17.60;48.80;18.60;99583.00;;;;4991081;28;20664;-51
2022/03/30 07:13:44;;;;;;;10.30;7.27;;;17.60;48.90;18.60;99638.00;;;;4990987;28;20172;-49
2022/03/30 07:16:10;;;;;;;11.63;7.50;;;17.60;48.90;18.60;99650.00;;;;4990614;28;20797;-49
2022/03/30 07:18:36;;;;;;;9.50;6.90;;;17.60;48.90;18.60;99662.00;;;;4990130;28;20197;-48
2022/03/30 07:21:02;;;;;;;9.00;6.60;;;17.60;48.90;18.50;99650.00;;;;4990244;28;20224;-49
2022/03/30 07:23:27;;;;;;;9.47;7.20;;;17.60;48.90;18.50;99654.00;;;;4990536;28;20548;-47
2022/03/30 07:25:53;;;;;;;11.20;7.40;;;17.50;48.80;18.50;99644.00;;;;4990076;28;20582;-49
2022/03/30 07:28:19;;;;;;;9.70;7.10;;;17.50;48.80;18.50;99639.00;;;;4990045;28;20701;-50
2022/03/30 07:30:45;;;;;;;9.90;7.13;;;17.50;48.80;18.50;99656.00;;;;4989809;28;20186;-50
2022/03/30 07:33:11;;;;;;;10.67;6.67;;;17.60;49.00;18.50;99646.00;;;;4989707;28;20215;-48
2022/03/30 07:35:39;;;;;;;9.53;6.43;;;17.50;48.80;18.50;99645.00;;;;4990289;28;20168;-49
2022/03/30 07:38:05;;;;;;;9.83;6.93;;;17.50;48.80;18.50;99642.00;;;;4990000;28;20279;-50
2022/03/30 07:40:31;;;;;;;10.80;6.97;;;17.50;48.80;18.50;99649.00;;;;4989172;28;20772;-50
2022/03/30 07:42:57;;;;;;;9.07;6.40;;;17.50;48.90;18.50;99636.00;;;;4990292;28;20196;-51
2022/03/30 07:45:23;;;;;;;9.17;6.70;;;17.50;48.90;18.50;99640.00;;;;4990192;28;20649;-51
2022/03/30 07:47:49;;;;;;;9.40;6.37;;;17.50;48.90;18.40;99638.00;;;;4989736;28;20206;-49
2022/03/30 07:50:15;;;;;;;9.17;6.30;;;17.50;48.90;18.40;99642.00;;;;4989671;28;20168;-49
2022/03/30 07:52:41;;;;;;;8.67;6.30;;;17.50;48.90;18.40;99647.00;;;;4989038;28;20979;-49
2022/03/30 07:55:08;;;;;;;8.93;6.43;;;17.50;48.90;18.40;99637.00;;;;4829089;28;20190;-48
2022/03/30 07:57:36;;;;;;;7.90;6.10;;;17.50;49.00;18.40;99637.00;;;;4972163;28;20180;-51
2022/03/30 08:00:04;;;;;;;7.80;5.93;;;17.40;48.90;18.40;99636.00;;;;4969938;28;20198;-49
2022/03/30 08:02:30;;;;;;;7.23;5.73;;;17.40;48.90;18.40;99634.00;;;;4969530;28;20681;-50
2022/03/30 08:04:56;;;;;;;7.20;5.33;;;17.40;48.90;18.40;99634.00;;;;4971408;28;20164;-49
2022/03/30 08:07:22;;;;;;;7.07;5.90;;;17.40;48.90;18.40;99639.00;;;;4968946;28;20843;-50
2022/03/30 08:09:48;;;;;;;8.07;6.00;;;17.40;48.90;18.40;99567.00;;;;4968604;28;20211;-50
2022/03/30 08:12:15;;;;;;;8.73;6.13;;;17.40;49.00;18.40;99631.00;;;;4969904;28;20196;-49
2022/03/30 08:14:42;;;;;;;7.00;5.60;;;17.40;49.00;18.40;99630.00;;;;4983706;28;20259;-50
2022/03/30 08:17:08;;;;;;;8.43;6.07;;;17.40;49.00;18.40;99629.00;;;;4989292;28;20274;-50
2022/03/30 08:19:34;;;;;;;7.30;5.80;;;17.40;49.00;18.40;99632.00;;;;4994707;28;20316;-48
2022/03/30 08:24:47;;;;;;;6.97;5.73;;;17.40;49.00;18.30;99626.00;;;;5008982;28;20652;-50
2022/03/30 08:27:23;;;;;;;7.77;5.73;;;17.40;49.10;18.30;99635.00;;;;5005155;28;20190;-50
2022/03/30 08:29:50;;;;;;;7.47;5.80;;;17.40;49.10;18.30;99634.00;;;;4989650;28;20757;-50
2022/03/30 08:32:17;;;;;;;6.97;5.73;;;17.30;49.00;18.30;99623.00;;;;4998199;28;20185;-50
2022/03/30 08:34:42;;;;;;;5.77;5.27;;;17.30;49.00;18.30;99620.00;;;;5009398;28;20331;-49
2022/03/30 08:37:09;;;;;;;7.37;5.43;;;17.40;49.10;18.30;99621.00;;;;5008391;28;20686;-49
2022/03/30 08:39:35;;;;;;;7.87;5.50;;;17.40;49.10;18.30;99625.00;;;;5009189;28;20197;-49
2022/03/30 08:42:05;;;;;;;6.60;5.23;;;17.30;49.10;18.30;99624.00;;;;5008754;28;20203;-49
2022/03/30 08:44:32;;;;;;;7.03;5.77;;;17.30;49.20;18.30;99620.00;;;;4999601;28;20556;-50
2022/03/30 08:46:58;;;;;;;6.07;5.37;;;17.30;49.20;18.30;99619.00;;;;4988615;28;20168;-49
2022/03/30 08:49:23;;;;;;;6.13;5.40;;;17.30;49.20;18.30;99615.00;;;;4988469;28;20205;-51
2022/03/30 08:51:49;;;;;;;6.40;5.10;;;17.30;49.20;18.30;99610.00;;;;4988659;28;20204;-49
2022/03/30 08:54:16;;;;;;;6.07;5.07;;;17.30;49.20;18.20;99621.00;;;;4987077;28;20752;-51
2022/03/30 08:56:42;;;;;;;7.43;5.13;;;17.30;49.20;18.20;99625.00;;;;4737272;28;20181;-50
2022/03/30 08:59:10;;;;;;;5.80;5.00;;;17.30;49.20;18.30;99618.00;;;;4968739;28;20205;-50
2022/03/30 09:01:39;;;;;;;6.13;4.67;;;17.30;49.20;18.20;99626.00;;;;4969276;28;20196;-49
2022/03/30 09:04:11;;;;;;;5.40;4.90;;;17.30;49.20;18.00;99624.00;;;;4969294;28;20173;-50
2022/03/30 09:06:44;;;;;;;6.50;5.13;;;17.30;49.20;18.20;99607.00;;;;4968941;28;20529;-50
2022/03/30 09:09:10;;;;;;;6.43;5.33;;;17.30;49.40;18.30;99614.00;;;;4992547;28;20270;-51
2022/03/30 09:11:45;;;;;;;6.13;4.90;;;17.30;49.40;18.30;99624.00;;;;5007599;28;20660;-50
2022/03/30 09:14:12;;;;;;;5.63;5.03;;;17.30;49.50;18.20;99613.00;;;;5010627;28;20659;-50
2022/03/30 09:16:42;;;;;;;5.90;5.07;;;17.30;49.50;18.20;99616.00;;;;5011732;28;20250;-50
2022/03/30 09:19:12;;;;;;;5.77;5.03;;;17.30;49.50;18.20;99613.00;;;;5011611;28;20664;-50
2022/03/30 09:21:46;;;;;;;6.07;5.10;;;17.30;49.60;18.20;99605.00;;;;5011412;28;20215;-50
2022/03/30 09:24:13;;;;;;;5.87;4.90;;;17.30;49.60;18.20;99603.00;;;;5011267;28;20599;-50
2022/03/30 09:26:39;;;;;;;5.27;4.50;;;17.30;49.60;18.20;99614.00;;;;5011640;28;20187;-50
2022/03/30 09:29:07;;;;;;;5.70;4.63;;;17.20;49.60;18.20;99611.00;;;;4993876;28;20200;-50
2022/03/30 09:31:34;;;;;;;5.60;4.90;;;17.30;49.80;18.20;99603.00;;;;5011541;28;20596;-50
2022/03/30 09:34:04;;;;;;;5.67;5.03;;;17.30;49.80;18.20;99609.00;;;;4995302;28;20523;-50
2022/03/30 09:36:33;;;;;;;4.93;4.50;;;17.30;49.90;18.20;99598.00;;;;4989779;28;20181;-50
2022/03/30 09:38:58;;;;;;;5.40;4.90;;;17.20;49.80;18.20;99599.00;;;;4992874;28;20239;-50
2022/03/30 09:41:24;;;;;;;5.03;4.53;;;17.30;50.00;18.20;99595.00;;;;5007981;28;20307;-51
2022/03/30 09:44:00;;;;;;;5.43;4.40;;;17.20;50.00;18.20;99594.00;;;;5010394;28;20199;-50
2022/03/30 09:46:25;;;;;;;5.07;4.40;;;17.20;50.00;18.20;99591.00;;;;5010795;28;20655;-50
2022/03/30 09:48:53;;;;;;;4.50;4.10;;;17.30;50.10;18.20;99588.00;;;;5011423;28;20196;-48
2022/03/30 09:51:21;;;;;;;5.47;4.70;;;17.30;50.10;18.20;99594.00;;;;5010482;28;20712;-50
2022/03/30 09:53:47;;;;;;;5.03;4.40;;;17.20;50.20;18.20;99593.00;;;;4992555;28;20208;-49
2022/03/30 09:56:21;;;;;;;4.87;4.30;;;17.20;50.10;18.20;99588.00;;;;4804657;28;20182;-50
2022/03/30 09:58:47;;;;;;;5.70;4.50;;;17.20;50.10;18.20;99590.00;;;;4972028;28;20197;-50
2022/03/30 10:01:23;;;;;;;4.87;4.37;;;17.20;50.10;18.20;99582.00;;;;4971619;28;20199;-50
2022/03/30 10:04:15;;;;;;;6.00;4.33;;;17.20;50.30;18.20;99574.00;;;;4972214;28;20184;-51
2022/03/30 10:06:41;;;;;;;5.37;4.60;;;17.20;50.40;18.20;99571.00;;;;4970349;28;20272;-50
2022/03/30 10:09:07;;;;;;;5.07;4.30;;;17.20;50.40;18.20;99570.00;;;;4971610;28;20209;-49
2022/03/30 10:11:32;;;;;;;4.77;4.33;;;17.20;50.40;18.20;99569.00;;;;4970982;28;20196;-50
2022/03/30 10:14:01;;;;;;;5.83;4.57;;;17.20;50.50;18.20;99579.00;;;;4972502;28;20192;-50
2022/03/30 10:16:27;;;;;;;6.10;4.70;;;17.20;50.60;18.20;99573.00;;;;4971736;28;20186;-51
2022/03/30 10:18:53;;;;;;;4.80;4.30;;;17.20;50.50;18.20;99563.00;;;;4972429;28;20204;-50
2022/03/30 10:21:30;;;;;;;4.87;4.37;;;17.20;50.70;18.20;99557.00;;;;4986350;28;20212;-50
2022/03/30 10:24:38;;;;;;;4.30;3.90;;;17.20;50.70;18.20;99567.00;;;;4969931;28;20160;-50
2022/03/30 10:27:14;;;;;;;5.20;4.70;;;17.20;50.60;18.10;99564.00;;;;4970777;28;20177;-50
2022/03/30 10:29:52;;;;;;;5.30;4.30;;;17.20;50.70;18.20;99501.00;;;;4996483;28;20203;-50
2022/03/30 10:32:21;;;;;;;4.67;4.27;;;17.20;50.80;18.10;99563.00;;;;5008913;28;20668;-50
2022/03/30 10:35:13;;;;;;;4.83;4.33;;;17.20;50.80;18.10;99556.00;;;;5011004;28;20565;-50
2022/03/30 10:37:44;;;;;;;4.47;4.07;;;17.20;50.90;18.10;99549.00;;;;5010101;28;20192;-50
2022/03/30 10:40:21;;;;;;;4.40;4.00;;;17.30;51.00;18.10;99550.00;;;;5010284;28;20184;-50
2022/03/30 10:42:46;;;;;;;4.50;4.10;;;17.20;51.10;18.10;99553.00;;;;5010573;28;20528;-50
2022/03/30 10:45:28;;;;;;;4.67;3.90;;;17.20;51.10;18.10;99549.00;;;;5010662;28;20167;-49
2022/03/30 10:48:20;;;;;;;4.40;4.00;;;17.20;51.20;18.10;99539.00;;;;5008984;28;20156;-49
2022/03/30 10:50:52;;;;;;;4.57;4.07;;;17.20;51.30;18.10;99534.00;;;;5010344;28;20777;-51
2022/03/30 10:53:30;;;;;;;4.60;4.10;;;17.20;51.40;18.10;99537.00;;;;5009680;28;20203;-49
2022/03/30 10:56:08;;;;;;;5.10;4.20;;;17.20;51.40;18.10;99528.00;;;;5010474;28;20176;-50
2022/03/30 10:58:49;;;;;;;4.23;3.67;;;17.30;51.60;18.10;99534.00;;;;5010465;28;20591;-50
2022/03/30 11:01:26;;;;;;;5.30;4.27;;;17.20;51.50;18.10;99533.00;;;;5000579;28;20200;-50
2022/03/30 11:04:10;;;;;;;5.97;4.00;;;17.30;51.50;18.10;99531.00;;;;4894909;28;20187;-49
2022/03/30 11:06:39;;;;;;;5.43;3.80;;;17.30;51.60;18.10;99531.00;;;;4993556;28;20686;-49